sensor_id;sensor_type;location;lat;lon;timestamp;P1;durP1;ratioP1;P2;durP2;ratioP2
16179;SDS011;8196;49.428;10.906;2023-07-29T00:00:04;1.08;;;0.82;;
16179;SDS011;8196;49.428;10.906;2023-07-29T00:02:34;1.10;;;1.00;;
16179;SDS011;8196;49.428;10.906;2023-07-29T00:05:01;1.08;;;0.95;;
16179;SDS011;8196;49.428;10.906;2023-07-29T00:07:28;0.82;;;0.82;;
16179;SDS011;8196;49.428;10.906;2023-07-29T00:09:56;2.33;;;1.02;;
16179;SDS011;8196;49.428;10.906;2023-07-29T00:12:23;2.05;;;1.20;;
16179;SDS011;8196;49.428;10.906;2023-07-29T00:14:52;0.88;;;0.88;;
16179;SDS011;8196;49.428;10.906;2023-07-29T00:17:19;1.13;;;0.98;;
16179;SDS011;8196;49.428;10.906;2023-07-29T00:19:47;1.10;;;1.02;;
16179;SDS011;8196;49.428;10.906;2023-07-29T00:22:14;1.38;;;1.13;;
16179;SDS011;8196;49.428;10.906;2023-07-29T00:24:41;0.88;;;0.75;;
16179;SDS011;8196;49.428;10.906;2023-07-29T00:27:08;1.38;;;0.80;;
16179;SDS011;8196;49.428;10.906;2023-07-29T00:29:35;1.55;;;1.08;;
16179;SDS011;8196;49.428;10.906;2023-07-29T00:32:02;1.27;;;1.10;;
16179;SDS011;8196;49.428;10.906;2023-07-29T00:34:30;1.45;;;0.93;;
16179;SDS011;8196;49.428;10.906;2023-07-29T00:36:57;0.80;;;0.80;;
16179;SDS011;8196;49.428;10.906;2023-07-29T00:39:24;1.58;;;1.42;;
16179;SDS011;8196;49.428;10.906;2023-07-29T00:41:51;1.10;;;1.00;;
16179;SDS011;8196;49.428;10.906;2023-07-29T00:44:18;0.93;;;0.85;;
16179;SDS011;8196;49.428;10.906;2023-07-29T00:46:46;1.15;;;1.00;;
16179;SDS011;8196;49.428;10.906;2023-07-29T00:49:14;1.15;;;1.05;;
16179;SDS011;8196;49.428;10.906;2023-07-29T00:51:41;1.33;;;0.98;;
16179;SDS011;8196;49.428;10.906;2023-07-29T00:54:08;1.33;;;1.00;;
16179;SDS011;8196;49.428;10.906;2023-07-29T00:56:35;1.92;;;1.17;;
16179;SDS011;8196;49.428;10.906;2023-07-29T00:59:03;1.20;;;1.10;;
16179;SDS011;8196;49.428;10.906;2023-07-29T01:01:31;1.35;;;1.25;;
16179;SDS011;8196;49.428;10.906;2023-07-29T01:03:58;1.35;;;0.90;;
16179;SDS011;8196;49.428;10.906;2023-07-29T01:09:01;1.05;;;0.98;;
16179;SDS011;8196;49.428;10.906;2023-07-29T01:11:33;0.75;;;0.75;;
16179;SDS011;8196;49.428;10.906;2023-07-29T01:16:31;5.57;;;0.85;;
16179;SDS011;8196;49.428;10.906;2023-07-29T01:19:01;2.20;;;1.40;;
16179;SDS011;8196;49.428;10.906;2023-07-29T01:21:33;1.52;;;1.20;;
16179;SDS011;8196;49.428;10.906;2023-07-29T01:24:02;0.88;;;0.88;;
16179;SDS011;8196;49.428;10.906;2023-07-29T01:26:29;1.48;;;1.38;;
16179;SDS011;8196;49.428;10.906;2023-07-29T01:28:57;8.57;;;1.20;;
16179;SDS011;8196;49.428;10.906;2023-07-29T01:31:42;1.02;;;0.88;;
16179;SDS011;8196;49.428;10.906;2023-07-29T01:34:15;0.80;;;0.80;;
16179;SDS011;8196;49.428;10.906;2023-07-29T01:36:44;2.80;;;0.98;;
16179;SDS011;8196;49.428;10.906;2023-07-29T01:39:13;0.60;;;0.60;;
16179;SDS011;8196;49.428;10.906;2023-07-29T01:41:41;0.57;;;0.57;;
16179;SDS011;8196;49.428;10.906;2023-07-29T01:44:09;0.65;;;0.60;;
16179;SDS011;8196;49.428;10.906;2023-07-29T01:46:37;0.47;;;0.47;;
16179;SDS011;8196;49.428;10.906;2023-07-29T01:49:04;0.75;;;0.75;;
16179;SDS011;8196;49.428;10.906;2023-07-29T01:51:31;0.95;;;0.45;;
16179;SDS011;8196;49.428;10.906;2023-07-29T01:54:01;0.50;;;0.50;;
16179;SDS011;8196;49.428;10.906;2023-07-29T01:56:28;0.82;;;0.82;;
16179;SDS011;8196;49.428;10.906;2023-07-29T01:58:56;0.50;;;0.50;;
16179;SDS011;8196;49.428;10.906;2023-07-29T02:01:23;1.52;;;0.82;;
16179;SDS011;8196;49.428;10.906;2023-07-29T02:03:50;1.20;;;0.90;;
16179;SDS011;8196;49.428;10.906;2023-07-29T02:06:21;1.40;;;1.23;;
16179;SDS011;8196;49.428;10.906;2023-07-29T02:08:48;7.57;;;1.02;;
16179;SDS011;8196;49.428;10.906;2023-07-29T02:11:15;0.65;;;0.60;;
16179;SDS011;8196;49.428;10.906;2023-07-29T02:13:43;0.68;;;0.68;;
16179;SDS011;8196;49.428;10.906;2023-07-29T02:16:10;0.35;;;0.35;;
16179;SDS011;8196;49.428;10.906;2023-07-29T02:18:37;1.27;;;0.68;;
16179;SDS011;8196;49.428;10.906;2023-07-29T02:21:04;0.20;;;0.20;;
16179;SDS011;8196;49.428;10.906;2023-07-29T02:23:31;0.80;;;0.50;;
16179;SDS011;8196;49.428;10.906;2023-07-29T02:25:59;0.57;;;0.57;;
16179;SDS011;8196;49.428;10.906;2023-07-29T02:28:26;0.55;;;0.55;;
16179;SDS011;8196;49.428;10.906;2023-07-29T02:33:37;2.92;;;0.77;;
16179;SDS011;8196;49.428;10.906;2023-07-29T02:36:04;0.52;;;0.52;;
16179;SDS011;8196;49.428;10.906;2023-07-29T02:38:31;0.93;;;0.70;;
16179;SDS011;8196;49.428;10.906;2023-07-29T02:40:58;0.68;;;0.68;;
16179;SDS011;8196;49.428;10.906;2023-07-29T02:43:26;0.50;;;0.50;;
16179;SDS011;8196;49.428;10.906;2023-07-29T02:45:53;8.60;;;1.23;;
16179;SDS011;8196;49.428;10.906;2023-07-29T02:48:20;0.85;;;0.50;;
16179;SDS011;8196;49.428;10.906;2023-07-29T02:50:47;0.60;;;0.60;;
16179;SDS011;8196;49.428;10.906;2023-07-29T02:53:14;0.85;;;0.85;;
16179;SDS011;8196;49.428;10.906;2023-07-29T02:55:41;1.40;;;0.60;;
16179;SDS011;8196;49.428;10.906;2023-07-29T02:58:09;0.60;;;0.57;;
16179;SDS011;8196;49.428;10.906;2023-07-29T03:00:36;0.73;;;0.68;;
16179;SDS011;8196;49.428;10.906;2023-07-29T03:03:03;1.38;;;0.85;;
16179;SDS011;8196;49.428;10.906;2023-07-29T03:05:30;0.88;;;0.88;;
16179;SDS011;8196;49.428;10.906;2023-07-29T03:07:57;1.40;;;0.68;;
16179;SDS011;8196;49.428;10.906;2023-07-29T03:10:24;1.15;;;0.98;;
16179;SDS011;8196;49.428;10.906;2023-07-29T03:12:53;1.02;;;0.93;;
16179;SDS011;8196;49.428;10.906;2023-07-29T03:15:23;0.68;;;0.68;;
16179;SDS011;8196;49.428;10.906;2023-07-29T03:17:51;0.32;;;0.32;;
16179;SDS011;8196;49.428;10.906;2023-07-29T03:20:19;1.55;;;0.98;;
16179;SDS011;8196;49.428;10.906;2023-07-29T03:22:46;1.38;;;1.23;;
16179;SDS011;8196;49.428;10.906;2023-07-29T03:25:13;0.60;;;0.50;;
16179;SDS011;8196;49.428;10.906;2023-07-29T03:27:40;0.88;;;0.70;;
16179;SDS011;8196;49.428;10.906;2023-07-29T03:30:08;0.50;;;0.50;;
16179;SDS011;8196;49.428;10.906;2023-07-29T03:32:40;1.42;;;0.88;;
16179;SDS011;8196;49.428;10.906;2023-07-29T03:35:07;1.08;;;0.50;;
16179;SDS011;8196;49.428;10.906;2023-07-29T03:37:35;11.00;;;0.80;;
16179;SDS011;8196;49.428;10.906;2023-07-29T03:40:02;0.40;;;0.40;;
16179;SDS011;8196;49.428;10.906;2023-07-29T03:42:30;0.60;;;0.60;;
16179;SDS011;8196;49.428;10.906;2023-07-29T03:44:57;1.05;;;0.90;;
16179;SDS011;8196;49.428;10.906;2023-07-29T03:47:25;0.98;;;0.63;;
16179;SDS011;8196;49.428;10.906;2023-07-29T03:49:52;2.72;;;0.98;;
16179;SDS011;8196;49.428;10.906;2023-07-29T03:52:19;0.32;;;0.32;;
16179;SDS011;8196;49.428;10.906;2023-07-29T03:54:46;1.38;;;0.73;;
16179;SDS011;8196;49.428;10.906;2023-07-29T03:57:13;0.20;;;0.20;;
16179;SDS011;8196;49.428;10.906;2023-07-29T03:59:41;0.30;;;0.30;;
16179;SDS011;8196;49.428;10.906;2023-07-29T04:02:08;1.02;;;0.65;;
16179;SDS011;8196;49.428;10.906;2023-07-29T04:04:35;0.55;;;0.55;;
16179;SDS011;8196;49.428;10.906;2023-07-29T04:07:02;1.17;;;1.08;;
16179;SDS011;8196;49.428;10.906;2023-07-29T04:09:30;0.80;;;0.80;;
16179;SDS011;8196;49.428;10.906;2023-07-29T04:11:57;0.63;;;0.63;;
16179;SDS011;8196;49.428;10.906;2023-07-29T04:14:24;0.43;;;0.43;;
16179;SDS011;8196;49.428;10.906;2023-07-29T04:16:51;0.63;;;0.60;;
16179;SDS011;8196;49.428;10.906;2023-07-29T04:19:18;0.93;;;0.93;;
16179;SDS011;8196;49.428;10.906;2023-07-29T04:21:46;0.68;;;0.68;;
16179;SDS011;8196;49.428;10.906;2023-07-29T04:24:13;1.23;;;0.93;;
16179;SDS011;8196;49.428;10.906;2023-07-29T04:26:40;1.65;;;0.75;;
16179;SDS011;8196;49.428;10.906;2023-07-29T04:29:07;0.77;;;0.75;;
16179;SDS011;8196;49.428;10.906;2023-07-29T04:31:34;3.05;;;1.02;;
16179;SDS011;8196;49.428;10.906;2023-07-29T04:34:02;0.85;;;0.73;;
16179;SDS011;8196;49.428;10.906;2023-07-29T04:36:29;1.30;;;0.95;;
16179;SDS011;8196;49.428;10.906;2023-07-29T04:38:56;2.35;;;1.17;;
16179;SDS011;8196;49.428;10.906;2023-07-29T04:41:23;1.88;;;1.10;;
16179;SDS011;8196;49.428;10.906;2023-07-29T04:43:50;0.75;;;0.75;;
16179;SDS011;8196;49.428;10.906;2023-07-29T04:46:18;0.73;;;0.73;;
16179;SDS011;8196;49.428;10.906;2023-07-29T04:48:45;1.02;;;0.95;;
16179;SDS011;8196;49.428;10.906;2023-07-29T04:51:12;1.10;;;1.00;;
16179;SDS011;8196;49.428;10.906;2023-07-29T04:53:40;0.85;;;0.80;;
16179;SDS011;8196;49.428;10.906;2023-07-29T04:56:07;0.90;;;0.88;;
16179;SDS011;8196;49.428;10.906;2023-07-29T04:58:34;1.08;;;0.95;;
16179;SDS011;8196;49.428;10.906;2023-07-29T05:01:02;6.18;;;1.48;;
16179;SDS011;8196;49.428;10.906;2023-07-29T05:03:29;0.88;;;0.73;;
16179;SDS011;8196;49.428;10.906;2023-07-29T05:05:57;1.48;;;1.35;;
16179;SDS011;8196;49.428;10.906;2023-07-29T05:08:26;1.27;;;0.68;;
16179;SDS011;8196;49.428;10.906;2023-07-29T05:10:53;0.90;;;0.90;;
16179;SDS011;8196;49.428;10.906;2023-07-29T05:13:21;2.95;;;1.20;;
16179;SDS011;8196;49.428;10.906;2023-07-29T05:15:49;2.00;;;1.40;;
16179;SDS011;8196;49.428;10.906;2023-07-29T05:18:17;1.38;;;1.27;;
16179;SDS011;8196;49.428;10.906;2023-07-29T05:20:44;1.17;;;1.08;;
16179;SDS011;8196;49.428;10.906;2023-07-29T05:23:11;1.25;;;0.93;;
16179;SDS011;8196;49.428;10.906;2023-07-29T05:25:38;1.25;;;0.90;;
16179;SDS011;8196;49.428;10.906;2023-07-29T05:28:05;1.20;;;0.93;;
16179;SDS011;8196;49.428;10.906;2023-07-29T05:30:33;0.55;;;0.52;;
16179;SDS011;8196;49.428;10.906;2023-07-29T05:33:03;1.33;;;1.23;;
16179;SDS011;8196;49.428;10.906;2023-07-29T05:35:31;1.17;;;1.10;;
16179;SDS011;8196;49.428;10.906;2023-07-29T05:37:58;1.42;;;0.82;;
16179;SDS011;8196;49.428;10.906;2023-07-29T05:40:25;1.25;;;1.00;;
16179;SDS011;8196;49.428;10.906;2023-07-29T05:42:52;0.60;;;0.60;;
16179;SDS011;8196;49.428;10.906;2023-07-29T05:45:19;0.68;;;0.68;;
16179;SDS011;8196;49.428;10.906;2023-07-29T05:47:47;1.48;;;1.38;;
16179;SDS011;8196;49.428;10.906;2023-07-29T05:50:14;0.85;;;0.85;;
16179;SDS011;8196;49.428;10.906;2023-07-29T05:52:41;2.80;;;1.48;;
16179;SDS011;8196;49.428;10.906;2023-07-29T05:55:08;0.75;;;0.75;;
16179;SDS011;8196;49.428;10.906;2023-07-29T05:57:35;1.15;;;0.63;;
16179;SDS011;8196;49.428;10.906;2023-07-29T06:00:03;1.77;;;1.40;;
16179;SDS011;8196;49.428;10.906;2023-07-29T06:02:30;1.23;;;1.13;;
16179;SDS011;8196;49.428;10.906;2023-07-29T06:04:57;0.70;;;0.70;;
16179;SDS011;8196;49.428;10.906;2023-07-29T06:07:24;0.85;;;0.77;;
16179;SDS011;8196;49.428;10.906;2023-07-29T06:09:56;1.48;;;1.02;;
16179;SDS011;8196;49.428;10.906;2023-07-29T06:12:23;0.65;;;0.65;;
16179;SDS011;8196;49.428;10.906;2023-07-29T06:14:51;1.25;;;1.15;;
16179;SDS011;8196;49.428;10.906;2023-07-29T06:17:18;1.05;;;0.90;;
16179;SDS011;8196;49.428;10.906;2023-07-29T06:19:45;1.45;;;1.35;;
16179;SDS011;8196;49.428;10.906;2023-07-29T06:22:12;1.42;;;1.13;;
16179;SDS011;8196;49.428;10.906;2023-07-29T06:24:39;2.17;;;1.05;;
16179;SDS011;8196;49.428;10.906;2023-07-29T06:27:06;1.80;;;1.25;;
16179;SDS011;8196;49.428;10.906;2023-07-29T06:29:34;0.98;;;0.93;;
16179;SDS011;8196;49.428;10.906;2023-07-29T06:32:01;1.13;;;0.77;;
16179;SDS011;8196;49.428;10.906;2023-07-29T06:34:28;1.67;;;0.57;;
16179;SDS011;8196;49.428;10.906;2023-07-29T06:36:55;0.17;;;0.17;;
16179;SDS011;8196;49.428;10.906;2023-07-29T06:39:23;0.10;;;0.10;;
16179;SDS011;8196;49.428;10.906;2023-07-29T06:41:50;0.10;;;0.10;;
16179;SDS011;8196;49.428;10.906;2023-07-29T06:44:17;0.20;;;0.20;;
16179;SDS011;8196;49.428;10.906;2023-07-29T06:46:44;0.10;;;0.10;;
16179;SDS011;8196;49.428;10.906;2023-07-29T06:49:12;0.10;;;0.10;;
16179;SDS011;8196;49.428;10.906;2023-07-29T06:51:39;0.10;;;0.10;;
16179;SDS011;8196;49.428;10.906;2023-07-29T06:54:06;0.20;;;0.20;;
16179;SDS011;8196;49.428;10.906;2023-07-29T06:56:34;0.10;;;0.10;;
16179;SDS011;8196;49.428;10.906;2023-07-29T06:59:01;0.08;;;0.08;;
16179;SDS011;8196;49.428;10.906;2023-07-29T07:01:28;0.10;;;0.10;;
16179;SDS011;8196;49.428;10.906;2023-07-29T07:03:55;0.00;;;0.00;;
16179;SDS011;8196;49.428;10.906;2023-07-29T07:06:24;0.10;;;0.10;;
16179;SDS011;8196;49.428;10.906;2023-07-29T07:08:52;0.10;;;0.10;;
16179;SDS011;8196;49.428;10.906;2023-07-29T07:11:19;0.38;;;0.38;;
16179;SDS011;8196;49.428;10.906;2023-07-29T07:13:46;0.10;;;0.10;;
16179;SDS011;8196;49.428;10.906;2023-07-29T07:16:13;0.20;;;0.20;;
16179;SDS011;8196;49.428;10.906;2023-07-29T07:18:40;0.17;;;0.17;;
16179;SDS011;8196;49.428;10.906;2023-07-29T07:21:08;0.28;;;0.28;;
16179;SDS011;8196;49.428;10.906;2023-07-29T07:23:35;0.10;;;0.10;;
16179;SDS011;8196;49.428;10.906;2023-07-29T07:26:02;0.10;;;0.10;;
16179;SDS011;8196;49.428;10.906;2023-07-29T07:28:29;0.10;;;0.10;;
16179;SDS011;8196;49.428;10.906;2023-07-29T07:30:57;0.20;;;0.20;;
16179;SDS011;8196;49.428;10.906;2023-07-29T07:33:25;0.20;;;0.20;;
16179;SDS011;8196;49.428;10.906;2023-07-29T07:35:52;0.10;;;0.10;;
16179;SDS011;8196;49.428;10.906;2023-07-29T07:38:19;0.20;;;0.20;;
16179;SDS011;8196;49.428;10.906;2023-07-29T07:40:54;0.10;;;0.10;;
16179;SDS011;8196;49.428;10.906;2023-07-29T07:43:22;0.25;;;0.25;;
16179;SDS011;8196;49.428;10.906;2023-07-29T07:45:49;0.10;;;0.10;;
16179;SDS011;8196;49.428;10.906;2023-07-29T07:48:16;0.00;;;0.00;;
16179;SDS011;8196;49.428;10.906;2023-07-29T07:50:46;0.15;;;0.15;;
16179;SDS011;8196;49.428;10.906;2023-07-29T07:53:13;0.15;;;0.15;;
16179;SDS011;8196;49.428;10.906;2023-07-29T07:55:40;0.10;;;0.10;;
16179;SDS011;8196;49.428;10.906;2023-07-29T07:58:07;0.17;;;0.17;;
16179;SDS011;8196;49.428;10.906;2023-07-29T08:00:34;0.10;;;0.10;;
16179;SDS011;8196;49.428;10.906;2023-07-29T08:03:01;0.10;;;0.10;;
16179;SDS011;8196;49.428;10.906;2023-07-29T08:05:29;0.15;;;0.15;;
16179;SDS011;8196;49.428;10.906;2023-07-29T08:07:56;0.10;;;0.10;;
16179;SDS011;8196;49.428;10.906;2023-07-29T08:10:23;0.40;;;0.40;;
16179;SDS011;8196;49.428;10.906;2023-07-29T08:12:51;0.25;;;0.25;;
16179;SDS011;8196;49.428;10.906;2023-07-29T08:15:18;0.10;;;0.10;;
16179;SDS011;8196;49.428;10.906;2023-07-29T08:17:45;0.10;;;0.10;;
16179;SDS011;8196;49.428;10.906;2023-07-29T08:20:12;0.03;;;0.03;;
16179;SDS011;8196;49.428;10.906;2023-07-29T08:22:40;0.28;;;0.28;;
16179;SDS011;8196;49.428;10.906;2023-07-29T08:25:07;0.10;;;0.10;;
16179;SDS011;8196;49.428;10.906;2023-07-29T08:27:34;0.10;;;0.10;;
16179;SDS011;8196;49.428;10.906;2023-07-29T08:30:01;1.45;;;1.13;;
16179;SDS011;8196;49.428;10.906;2023-07-29T08:32:28;0.10;;;0.10;;
16179;SDS011;8196;49.428;10.906;2023-07-29T08:34:56;0.35;;;0.35;;
16179;SDS011;8196;49.428;10.906;2023-07-29T08:37:23;0.15;;;0.15;;
16179;SDS011;8196;49.428;10.906;2023-07-29T08:39:50;0.00;;;0.00;;
16179;SDS011;8196;49.428;10.906;2023-07-29T08:42:21;0.00;;;0.00;;
16179;SDS011;8196;49.428;10.906;2023-07-29T08:44:50;0.10;;;0.10;;
16179;SDS011;8196;49.428;10.906;2023-07-29T08:47:17;0.10;;;0.10;;
16179;SDS011;8196;49.428;10.906;2023-07-29T08:49:45;0.13;;;0.13;;
16179;SDS011;8196;49.428;10.906;2023-07-29T08:52:13;0.10;;;0.10;;
16179;SDS011;8196;49.428;10.906;2023-07-29T08:54:41;0.15;;;0.15;;
16179;SDS011;8196;49.428;10.906;2023-07-29T08:57:08;0.10;;;0.10;;
16179;SDS011;8196;49.428;10.906;2023-07-29T08:59:36;0.10;;;0.10;;
16179;SDS011;8196;49.428;10.906;2023-07-29T09:02:04;0.10;;;0.10;;
16179;SDS011;8196;49.428;10.906;2023-07-29T09:04:31;0.10;;;0.10;;
16179;SDS011;8196;49.428;10.906;2023-07-29T09:06:58;0.13;;;0.13;;
16179;SDS011;8196;49.428;10.906;2023-07-29T09:09:25;0.00;;;0.00;;
16179;SDS011;8196;49.428;10.906;2023-07-29T09:11:53;0.10;;;0.10;;
16179;SDS011;8196;49.428;10.906;2023-07-29T09:14:20;0.10;;;0.10;;
16179;SDS011;8196;49.428;10.906;2023-07-29T09:16:47;0.10;;;0.10;;
16179;SDS011;8196;49.428;10.906;2023-07-29T09:19:15;0.03;;;0.03;;
16179;SDS011;8196;49.428;10.906;2023-07-29T09:21:42;0.10;;;0.10;;
16179;SDS011;8196;49.428;10.906;2023-07-29T09:24:09;0.10;;;0.10;;
16179;SDS011;8196;49.428;10.906;2023-07-29T09:26:37;0.10;;;0.10;;
16179;SDS011;8196;49.428;10.906;2023-07-29T09:29:06;0.10;;;0.10;;
16179;SDS011;8196;49.428;10.906;2023-07-29T09:31:34;0.10;;;0.10;;
16179;SDS011;8196;49.428;10.906;2023-07-29T09:34:03;0.10;;;0.10;;
16179;SDS011;8196;49.428;10.906;2023-07-29T09:36:31;0.10;;;0.10;;
16179;SDS011;8196;49.428;10.906;2023-07-29T09:38:58;0.10;;;0.10;;
16179;SDS011;8196;49.428;10.906;2023-07-29T09:41:26;0.10;;;0.10;;
16179;SDS011;8196;49.428;10.906;2023-07-29T09:44:00;0.10;;;0.10;;
16179;SDS011;8196;49.428;10.906;2023-07-29T09:46:31;0.10;;;0.10;;
16179;SDS011;8196;49.428;10.906;2023-07-29T09:48:59;0.10;;;0.10;;
16179;SDS011;8196;49.428;10.906;2023-07-29T09:51:26;0.10;;;0.10;;
16179;SDS011;8196;49.428;10.906;2023-07-29T09:53:54;0.10;;;0.10;;
16179;SDS011;8196;49.428;10.906;2023-07-29T09:56:26;0.10;;;0.10;;
16179;SDS011;8196;49.428;10.906;2023-07-29T09:58:56;0.10;;;0.10;;
16179;SDS011;8196;49.428;10.906;2023-07-29T10:01:24;0.17;;;0.17;;
16179;SDS011;8196;49.428;10.906;2023-07-29T10:03:51;0.10;;;0.10;;
16179;SDS011;8196;49.428;10.906;2023-07-29T10:06:18;0.10;;;0.10;;
16179;SDS011;8196;49.428;10.906;2023-07-29T10:08:47;0.10;;;0.10;;
16179;SDS011;8196;49.428;10.906;2023-07-29T10:11:14;0.10;;;0.10;;
16179;SDS011;8196;49.428;10.906;2023-07-29T10:13:42;0.10;;;0.10;;
16179;SDS011;8196;49.428;10.906;2023-07-29T10:16:29;0.10;;;0.10;;
16179;SDS011;8196;49.428;10.906;2023-07-29T10:18:57;0.65;;;0.65;;
16179;SDS011;8196;49.428;10.906;2023-07-29T10:21:24;0.00;;;0.00;;
16179;SDS011;8196;49.428;10.906;2023-07-29T10:23:51;0.10;;;0.10;;
16179;SDS011;8196;49.428;10.906;2023-07-29T10:26:20;0.17;;;0.17;;
16179;SDS011;8196;49.428;10.906;2023-07-29T10:28:47;1.35;;;0.43;;
16179;SDS011;8196;49.428;10.906;2023-07-29T10:31:16;0.10;;;0.10;;
16179;SDS011;8196;49.428;10.906;2023-07-29T10:33:43;0.10;;;0.10;;
16179;SDS011;8196;49.428;10.906;2023-07-29T10:36:11;0.10;;;0.10;;
16179;SDS011;8196;49.428;10.906;2023-07-29T10:38:39;0.10;;;0.10;;
16179;SDS011;8196;49.428;10.906;2023-07-29T10:41:07;0.10;;;0.10;;
16179;SDS011;8196;49.428;10.906;2023-07-29T10:43:35;0.30;;;0.30;;
16179;SDS011;8196;49.428;10.906;2023-07-29T10:46:21;0.10;;;0.10;;
16179;SDS011;8196;49.428;10.906;2023-07-29T10:54:09;0.10;;;0.10;;
16179;SDS011;8196;49.428;10.906;2023-07-29T10:56:37;0.20;;;0.20;;
16179;SDS011;8196;49.428;10.906;2023-07-29T11:01:45;0.10;;;0.10;;
16179;SDS011;8196;49.428;10.906;2023-07-29T11:04:21;0.10;;;0.10;;
16179;SDS011;8196;49.428;10.906;2023-07-29T11:17:37;0.10;;;0.10;;
16179;SDS011;8196;49.428;10.906;2023-07-29T11:20:05;0.10;;;0.10;;
16179;SDS011;8196;49.428;10.906;2023-07-29T11:22:35;0.10;;;0.10;;
16179;SDS011;8196;49.428;10.906;2023-07-29T11:25:02;0.20;;;0.20;;
16179;SDS011;8196;49.428;10.906;2023-07-29T11:27:30;0.10;;;0.10;;
16179;SDS011;8196;49.428;10.906;2023-07-29T11:29:57;0.35;;;0.35;;
16179;SDS011;8196;49.428;10.906;2023-07-29T11:32:25;0.10;;;0.10;;
16179;SDS011;8196;49.428;10.906;2023-07-29T11:34:52;0.10;;;0.10;;
16179;SDS011;8196;49.428;10.906;2023-07-29T11:37:19;0.00;;;0.00;;
16179;SDS011;8196;49.428;10.906;2023-07-29T11:39:47;0.10;;;0.10;;
16179;SDS011;8196;49.428;10.906;2023-07-29T11:42:15;0.10;;;0.10;;
16179;SDS011;8196;49.428;10.906;2023-07-29T11:44:42;0.08;;;0.08;;
16179;SDS011;8196;49.428;10.906;2023-07-29T11:47:10;0.10;;;0.10;;
16179;SDS011;8196;49.428;10.906;2023-07-29T11:49:39;1.02;;;1.00;;
16179;SDS011;8196;49.428;10.906;2023-07-29T11:52:07;0.10;;;0.10;;
16179;SDS011;8196;49.428;10.906;2023-07-29T11:54:35;0.10;;;0.10;;
16179;SDS011;8196;49.428;10.906;2023-07-29T11:57:04;0.10;;;0.10;;
16179;SDS011;8196;49.428;10.906;2023-07-29T11:59:34;0.20;;;0.20;;
16179;SDS011;8196;49.428;10.906;2023-07-29T12:02:05;0.10;;;0.10;;
16179;SDS011;8196;49.428;10.906;2023-07-29T12:04:33;0.10;;;0.10;;
16179;SDS011;8196;49.428;10.906;2023-07-29T12:07:00;0.20;;;0.20;;
16179;SDS011;8196;49.428;10.906;2023-07-29T12:09:28;0.20;;;0.20;;
16179;SDS011;8196;49.428;10.906;2023-07-29T12:11:57;0.20;;;0.20;;
16179;SDS011;8196;49.428;10.906;2023-07-29T12:14:26;0.20;;;0.20;;
16179;SDS011;8196;49.428;10.906;2023-07-29T12:16:53;0.10;;;0.10;;
16179;SDS011;8196;49.428;10.906;2023-07-29T12:19:20;0.20;;;0.20;;
16179;SDS011;8196;49.428;10.906;2023-07-29T12:21:49;0.20;;;0.20;;
16179;SDS011;8196;49.428;10.906;2023-07-29T12:24:16;0.20;;;0.20;;
16179;SDS011;8196;49.428;10.906;2023-07-29T12:26:43;0.20;;;0.20;;
16179;SDS011;8196;49.428;10.906;2023-07-29T12:29:12;0.28;;;0.28;;
16179;SDS011;8196;49.428;10.906;2023-07-29T12:31:39;0.20;;;0.20;;
16179;SDS011;8196;49.428;10.906;2023-07-29T12:34:06;0.57;;;0.57;;
16179;SDS011;8196;49.428;10.906;2023-07-29T12:36:50;0.50;;;0.50;;
16179;SDS011;8196;49.428;10.906;2023-07-29T12:39:18;0.47;;;0.47;;
16179;SDS011;8196;49.428;10.906;2023-07-29T12:41:45;0.88;;;0.88;;
16179;SDS011;8196;49.428;10.906;2023-07-29T12:44:12;1.92;;;0.60;;
16179;SDS011;8196;49.428;10.906;2023-07-29T12:46:42;0.82;;;0.73;;
16179;SDS011;8196;49.428;10.906;2023-07-29T12:49:09;1.10;;;1.10;;
16179;SDS011;8196;49.428;10.906;2023-07-29T12:51:36;1.05;;;0.73;;
16179;SDS011;8196;49.428;10.906;2023-07-29T12:54:04;2.08;;;0.90;;
16179;SDS011;8196;49.428;10.906;2023-07-29T12:56:31;0.73;;;0.60;;
16179;SDS011;8196;49.428;10.906;2023-07-29T12:59:00;1.58;;;0.93;;
16179;SDS011;8196;49.428;10.906;2023-07-29T13:01:28;0.90;;;0.90;;
16179;SDS011;8196;49.428;10.906;2023-07-29T13:03:55;0.70;;;0.70;;
16179;SDS011;8196;49.428;10.906;2023-07-29T13:06:22;0.80;;;0.80;;
16179;SDS011;8196;49.428;10.906;2023-07-29T13:08:49;1.00;;;1.00;;
16179;SDS011;8196;49.428;10.906;2023-07-29T13:11:17;1.05;;;0.95;;
16179;SDS011;8196;49.428;10.906;2023-07-29T13:13:44;1.20;;;1.10;;
16179;SDS011;8196;49.428;10.906;2023-07-29T13:16:12;0.75;;;0.75;;
16179;SDS011;8196;49.428;10.906;2023-07-29T13:18:39;1.52;;;1.00;;
16179;SDS011;8196;49.428;10.906;2023-07-29T13:21:07;1.73;;;1.13;;
16179;SDS011;8196;49.428;10.906;2023-07-29T13:23:34;1.05;;;0.95;;
16179;SDS011;8196;49.428;10.906;2023-07-29T13:26:01;0.93;;;0.93;;
16179;SDS011;8196;49.428;10.906;2023-07-29T13:28:28;1.02;;;1.00;;
16179;SDS011;8196;49.428;10.906;2023-07-29T13:30:56;1.50;;;1.00;;
16179;SDS011;8196;49.428;10.906;2023-07-29T13:33:23;1.10;;;0.77;;
16179;SDS011;8196;49.428;10.906;2023-07-29T13:35:50;0.77;;;0.70;;
16179;SDS011;8196;49.428;10.906;2023-07-29T13:38:17;0.82;;;0.82;;
16179;SDS011;8196;49.428;10.906;2023-07-29T13:40:46;0.80;;;0.80;;
16179;SDS011;8196;49.428;10.906;2023-07-29T13:43:13;2.05;;;1.02;;
16179;SDS011;8196;49.428;10.906;2023-07-29T13:45:41;1.40;;;0.95;;
16179;SDS011;8196;49.428;10.906;2023-07-29T13:48:08;0.90;;;0.90;;
16179;SDS011;8196;49.428;10.906;2023-07-29T13:50:35;0.93;;;0.93;;
16179;SDS011;8196;49.428;10.906;2023-07-29T13:53:03;0.82;;;0.82;;
16179;SDS011;8196;49.428;10.906;2023-07-29T13:55:30;0.77;;;0.77;;
16179;SDS011;8196;49.428;10.906;2023-07-29T13:57:57;1.20;;;1.10;;
16179;SDS011;8196;49.428;10.906;2023-07-29T14:00:24;0.60;;;0.60;;
16179;SDS011;8196;49.428;10.906;2023-07-29T14:02:51;0.88;;;0.88;;
16179;SDS011;8196;49.428;10.906;2023-07-29T14:05:19;0.82;;;0.77;;
16179;SDS011;8196;49.428;10.906;2023-07-29T14:07:46;0.70;;;0.70;;
16179;SDS011;8196;49.428;10.906;2023-07-29T14:10:13;0.80;;;0.80;;
16179;SDS011;8196;49.428;10.906;2023-07-29T14:12:40;0.80;;;0.80;;
16179;SDS011;8196;49.428;10.906;2023-07-29T14:15:07;0.70;;;0.70;;
16179;SDS011;8196;49.428;10.906;2023-07-29T14:17:35;0.95;;;0.90;;
16179;SDS011;8196;49.428;10.906;2023-07-29T14:20:02;0.88;;;0.88;;
16179;SDS011;8196;49.428;10.906;2023-07-29T14:22:31;0.98;;;0.80;;
16179;SDS011;8196;49.428;10.906;2023-07-29T14:24:58;0.70;;;0.70;;
16179;SDS011;8196;49.428;10.906;2023-07-29T14:27:26;1.27;;;0.93;;
16179;SDS011;8196;49.428;10.906;2023-07-29T14:29:53;0.90;;;0.90;;
16179;SDS011;8196;49.428;10.906;2023-07-29T14:32:21;0.80;;;0.80;;
16179;SDS011;8196;49.428;10.906;2023-07-29T14:34:49;0.80;;;0.73;;
16179;SDS011;8196;49.428;10.906;2023-07-29T14:37:18;0.77;;;0.77;;
16179;SDS011;8196;49.428;10.906;2023-07-29T14:39:45;1.63;;;0.93;;
16179;SDS011;8196;49.428;10.906;2023-07-29T14:42:12;0.85;;;0.85;;
16179;SDS011;8196;49.428;10.906;2023-07-29T14:44:41;0.85;;;0.80;;
16179;SDS011;8196;49.428;10.906;2023-07-29T14:47:08;0.70;;;0.70;;
16179;SDS011;8196;49.428;10.906;2023-07-29T14:49:35;0.98;;;0.88;;
16179;SDS011;8196;49.428;10.906;2023-07-29T14:52:02;0.98;;;0.98;;
16179;SDS011;8196;49.428;10.906;2023-07-29T14:54:30;1.00;;;1.00;;
16179;SDS011;8196;49.428;10.906;2023-07-29T14:56:57;0.80;;;0.80;;
16179;SDS011;8196;49.428;10.906;2023-07-29T14:59:24;1.20;;;1.10;;
16179;SDS011;8196;49.428;10.906;2023-07-29T15:01:51;1.10;;;0.93;;
16179;SDS011;8196;49.428;10.906;2023-07-29T15:04:18;0.90;;;0.90;;
16179;SDS011;8196;49.428;10.906;2023-07-29T15:06:46;1.25;;;1.02;;
16179;SDS011;8196;49.428;10.906;2023-07-29T15:09:13;1.00;;;1.00;;
16179;SDS011;8196;49.428;10.906;2023-07-29T15:11:40;1.23;;;1.13;;
16179;SDS011;8196;49.428;10.906;2023-07-29T15:14:07;0.90;;;0.90;;
16179;SDS011;8196;49.428;10.906;2023-07-29T15:16:35;1.00;;;0.98;;